Landers, California
Current Conditions -  °F | °C
As of 2:56 AM on Tuesday 21 Oct 2014 (Local Time) from KNXP Reporting Station
Clear Clear  
Wind Chill: 19°   Ceiling: Unl
Heat Index: 19°   Visibility: 10mi
Dew Point:   Wind: 8mph
Humidity: 44%   Direction: 330°NNW
Pressure: 29.97"   Gusts: NA
Location:  34.27°N, 116.39°W
Report Text: KNXP 210956Z AUTO 33007KT 10SM CLR 19/07 A2997 RMK AO2 SLP113 T01940067
Loading
Personal Weather Stations






























Interactive Weather Map
Tropical Storm Tracking
New forecast layout! Learn more

10-Day Weather Forecast

Advertisements
Track Severe Weather on mobile